Data for 03/25/2006

Time Sea-Level Adjusted Pressure Absolute Pressure Temperature Relative Humidity Dew Point   
(mb) (inHg) (mb) (inHg) (C) (F) (%) (C) (F)
00:05 1015 29.97 844 24.92 4.6 40.4 48 -5.4 22.3
00:10 1015 29.97 844 24.92 4.5 40 49 -5.4 22.3
00:15 1015 29.97 844 24.92 4.4 40 48 -5.6 22
00:20 1015 29.97 844 24.92 4.6 40.3 47 -5.8 21.6
00:25 1015 29.97 844 24.92 4.8 40.7 48 -5.4 22.3
00:30 1015 29.97 844 24.92 4.6 40.2 49 -5.4 22.4
00:35 1015 29.97 844 24.92 4.4 39.9 49 -5.3 22.4
00:40 1015 29.97 844 24.92 4.2 39.6 50 -5.2 22.7
00:45 1015 29.97 844 24.92 4.1 39.3 51 -5.2 22.7
00:50 1015 29.97 844 24.92 4.1 39.5 51 -5.2 22.6
00:55 1015 29.97 844 24.92 4.4 39.8 49 -5.4 22.2
01:00 1014 29.94 844 24.92 4.6 40.2 48 -5.4 22.3
01:05 1014 29.94 844 24.92 4.5 40.2 49 -5.3 22.5
01:10 1014 29.94 844 24.92 4.5 40.1 50 -5 22.9
01:15 1014 29.94 844 24.92 4.3 39.8 51 -5 22.9
01:20 1014 29.94 844 24.92 4.4 39.8 51 -5 23
01:25 1014 29.94 843 24.89 4.5 40.1 50 -5 23.1
01:30 1014 29.94 843 24.89 4.6 40.3 49 -5.1 22.9
01:35 1014 29.94 843 24.89 4.7 40.4 50 -4.9 23.3
01:40 1014 29.94 843 24.89 4.7 40.4 50 -4.8 23.3
01:45 1014 29.94 843 24.89 4.6 40.4 50 -4.9 23.2
01:50 1014 29.94 843 24.89 4.7 40.5 49 -5 23
01:55 1014 29.94 843 24.89 4.8 40.7 49 -5 23.1
02:00 1014 29.94 843 24.89 4.9 40.8 49 -5.1 22.9
02:05 1014 29.94 843 24.89 5.1 41.1 47 -5.3 22.5
02:10 1014 29.94 843 24.89 5.3 41.6 47 -5.1 22.8
02:15 1014 29.94 843 24.89 5.2 41.3 48 -5 23
02:20 1014 29.94 843 24.89 5.1 41.1 48 -4.9 23.2
02:25 1014 29.94 843 24.89 5 41 49 -4.8 23.4
02:30 1014 29.94 843 24.89 4.9 40.8 49 -5 23.1
02:35 1014 29.94 843 24.89 5 41 49 -4.9 23.2
02:40 1014 29.94 843 24.89 4.8 40.6 49 -4.9 23.1
02:45 1014 29.94 843 24.89 4.9 40.8 48 -5.1 22.8
02:50 1014 29.94 843 24.89 5 41 47 -5.3 22.4
02:55 1014 29.94 843 24.89 5.3 41.6 46 -5.4 22.2
03:00 1014 29.94 843 24.89 5.5 41.8 46 -5.2 22.7
03:05 1013 29.91 843 24.89 5.4 41.7 47 -5 23
03:10 1013 29.91 843 24.89 5.4 41.7 47 -5 23.1
03:15 1013 29.91 843 24.89 5.2 41.4 48 -4.8 23.3
03:20 1013 29.91 843 24.89 4.9 40.9 49 -4.9 23.2
03:25 1013 29.91 843 24.89 4.8 40.6 50 -4.8 23.4
03:30 1013 29.91 842 24.86 4.8 40.6 49 -5 22.9
03:35 1013 29.91 843 24.89 5 40.9 49 -5 23
03:40 1013 29.91 842 24.86 5 41 48 -5.1 22.8
03:45 1013 29.91 842 24.86 5.1 41.1 48 -5 23
03:50 1013 29.91 842 24.86 5.1 41.1 49 -4.9 23.2
03:55 1013 29.91 842 24.86 5.2 41.4 48 -4.9 23.1
04:00 1013 29.91 842 24.86 5.4 41.7 48 -4.7 23.5
04:05 1013 29.91 842 24.86 5.3 41.5 49 -4.6 23.8
04:10 1013 29.91 842 24.86 5.2 41.4 50 -4.5 24
04:15 1013 29.91 842 24.86 5.2 41.4 49 -4.6 23.8
04:20 1013 29.91 842 24.86 5.2 41.3 50 -4.5 23.9
04:25 1013 29.91 842 24.86 5 40.9 50 -4.5 23.9
04:30 1013 29.91 842 24.86 4.8 40.7 52 -4.3 24.3
04:35 1013 29.91 842 24.86 4.6 40.3 52 -4.5 24
04:40 1013 29.91 842 24.86 4.9 40.9 50 -4.7 23.5
04:45 1013 29.91 842 24.86 5.5 41.9 48 -4.6 23.8
04:50 1013 29.91 842 24.86 5.7 42.2 48 -4.3 24.2
04:55 1013 29.91 842 24.86 5.5 41.9 50 -4.2 24.4
05:00 1013 29.91 842 24.86 5.3 41.5 51 -4.1 24.6
05:05 1013 29.91 842 24.86 5.2 41.4 50 -4.3 24.2
05:10 1013 29.91 842 24.86 5.2 41.4 51 -4.1 24.6
05:15 1013 29.91 842 24.86 5.1 41.2 51 -4.1 24.5
05:20 1013 29.91 842 24.86 5 41.1 52 -4 24.8
05:25 1013 29.91 842 24.86 4.8 40.6 53 -4 24.9
05:30 1012 29.88 842 24.86 4.8 40.7 53 -4.1 24.7
05:35 1012 29.88 842 24.86 5.2 41.3 51 -4.1 24.7
05:40 1012 29.88 842 24.86 5.4 41.7 50 -4.2 24.5
05:45 1012 29.88 842 24.86 5.4 41.7 51 -4 24.9
05:50 1012 29.88 842 24.86 5.4 41.6 51 -4 24.8
05:55 1012 29.88 842 24.86 5.3 41.6 51 -4 24.8
06:00 1012 29.88 842 24.86 5.4 41.6 51 -3.9 24.9
06:05 1012 29.88 842 24.86 5.4 41.7 50 -4.1 24.6
06:10 1012 29.88 842 24.86 5.6 42 50 -3.9 25
06:15 1012 29.88 841 24.83 5.7 42.2 50 -3.9 24.9
06:20 1012 29.88 841 24.83 5.8 42.4 50 -3.9 24.9
06:25 1012 29.88 841 24.83 5.8 42.5 50 -3.7 25.3
06:30 1012 29.88 841 24.83 5.9 42.7 50 -3.8 25.1
06:35 1012 29.88 841 24.83 6 42.7 49 -3.8 25.1
06:40 1012 29.88 841 24.83 5.9 42.7 50 -3.6 25.5
06:45 1012 29.88 841 24.83 5.9 42.7 50 -3.7 25.3
06:50 1012 29.88 841 24.83 5.7 42.2 53 -3.2 26.3
06:55 1012 29.88 841 24.83 5.4 41.6 52 -3.7 25.3
07:00 1012 29.88 841 24.83 5.7 42.3 51 -3.6 25.5
07:05 1012 29.88 841 24.83 5.8 42.5 51 -3.6 25.5
07:10 1012 29.88 841 24.83 6.1 43 49 -3.7 25.3
07:15 1012 29.88 841 24.83 6.2 43.1 50 -3.6 25.6
07:20 1012 29.88 841 24.83 6.3 43.3 49 -3.7 25.3
07:25 1012 29.88 841 24.83 6.4 43.5 48 -3.7 25.3
07:30 1012 29.88 841 24.83 6.5 43.6 49 -3.5 25.7
07:35 1012 29.88 841 24.83 6.4 43.5 49 -3.7 25.4
07:40 1012 29.88 841 24.83 6.6 43.8 48 -3.7 25.4
07:45 1012 29.88 841 24.83 6.7 44 48 -3.5 25.7
07:50 1012 29.88 841 24.83 6.7 44 48 -3.5 25.8
07:55 1012 29.88 841 24.83 6.8 44.2 47 -3.9 25.1
08:00 1012 29.88 841 24.83 7 44.6 46 -3.7 25.3
08:05 1011 29.85 841 24.83 7 44.7 47 -3.6 25.5
08:10 1011 29.85 841 24.83 7.2 44.9 45 -4 24.9
08:15 1011 29.85 841 24.83 7.3 45.1 46 -3.7 25.4
08:20 1011 29.85 840 24.81 7.3 45.1 45 -3.7 25.3
08:25 1011 29.85 840 24.81 7.4 45.3 45 -3.8 25.2
08:30 1011 29.85 840 24.81 7.5 45.6 45 -3.7 25.3
08:35 1011 29.85 840 24.81 7.7 45.8 44 -3.9 25.1
08:40 1011 29.85 840 24.81 7.9 46.2 43 -3.9 25
08:45 1011 29.85 840 24.81 8.1 46.6 42 -3.9 25.1
08:50 1011 29.85 840 24.81 8.1 46.7 42 -3.9 24.9
08:55 1011 29.85 840 24.81 8.3 47 42 -3.9 24.9
09:00 1011 29.85 840 24.81 8.4 47.1 42 -3.8 25.1
09:05 1010 29.83 840 24.81 8.5 47.3 41 -4.1 24.7
09:10 1010 29.83 840 24.81 8.7 47.7 40 -4.1 24.6
09:15 1010 29.83 839 24.78 8.8 47.8 39 -4.2 24.4
09:20 1010 29.83 839 24.78 8.9 48.1 39 -4.3 24.3
09:25 1010 29.83 839 24.78 9.1 48.4 38 -4.4 24.2
09:30 1010 29.83 839 24.78 9.2 48.6 38 -4.3 24.3
09:35 1010 29.83 839 24.78 9.5 49.1 37 -4.4 24
09:40 1010 29.83 839 24.78 9.7 49.5 36 -4.6 23.7
09:45 1010 29.83 839 24.78 10.1 50.1 35 -4.7 23.5
09:50 1010 29.83 839 24.78 10.3 50.5 35 -4.5 23.9
09:55 1010 29.83 839 24.78 10.5 50.9 34 -4.8 23.4
10:00 1010 29.83 839 24.78 10.7 51.3 34 -4.6 23.8
10:05 1010 29.83 839 24.78 11 51.8 33 -4.6 23.6
10:10 1010 29.83 839 24.78 11.2 52.2 32 -4.7 23.6
10:15 1010 29.83 839 24.78 11.4 52.5 32 -4.7 23.6
10:20 1009 29.8 839 24.78 11.5 52.6 32 -4.6 23.8
10:25 1009 29.8 839 24.78 11.7 53.1 31 -4.7 23.6
10:30 1009 29.8 838 24.75 11.9 53.4 31 -4.7 23.5
10:35 1009 29.8 838 24.75 12.1 53.8 31 -4.6 23.7
10:40 1009 29.8 838 24.75 12.2 54 31 -4.5 23.9
10:45 1009 29.8 838 24.75 12.4 54.4 30 -4.7 23.6
10:50 1009 29.8 838 24.75 12.6 54.6 29 -4.7 23.5
10:55 1009 29.8 838 24.75 12.9 55.2 28 -5 23.1
11:00 1009 29.8 838 24.75 13 55.4 29 -4.8 23.4
11:05 1009 29.8 838 24.75 13.4 56.1 27 -5 22.9
11:10 1009 29.8 838 24.75 13.4 56.1 27 -5.3 22.4
11:15 1009 29.8 838 24.75 13.9 57.1 25 -5.6 21.9
11:20 1009 29.8 838 24.75 14.7 58.4 25 -5 23
11:25 1009 29.8 838 24.75 14.6 58.3 26 -4.6 23.7
11:30 1008 29.77 838 24.75 14.4 57.8 25 -5.5 22.1
11:35 1008 29.77 838 24.75 14.6 58.2 24 -5.7 21.8
11:40 1008 29.77 838 24.75 15.1 59.1 24 -5.3 22.5
11:45 1008 29.77 838 24.75 14.7 58.5 26 -4.4 24
11:50 1008 29.77 837 24.72 14.7 58.4 25 -5.1 22.8
11:55 1008 29.77 837 24.72 14.2 57.6 25 -5.3 22.5
12:00 1008 29.77 837 24.72 14.3 57.7 26 -5.1 22.9
12:05 1008 29.77 837 24.72 14.5 58.1 25 -5 23
12:10 1008 29.77 837 24.72 14.1 57.4 26 -4.8 23.4
12:15 1008 29.77 837 24.72 14.2 57.6 25 -5.3 22.4
12:20 1007 29.74 837 24.72 14.3 57.8 25 -5.2 22.7
12:25 1007 29.74 837 24.72 14.6 58.3 25 -5.3 22.5
12:30 1007 29.74 837 24.72 14.3 57.8 25 -5.1 22.7
12:35 1007 29.74 837 24.72 14.4 58 24 -5.6 21.9
12:40 1007 29.74 836 24.69 14.5 58.1 24 -5.6 22
12:45 1007 29.74 836 24.69 14.6 58.3 23 -6.3 20.7
12:50 1007 29.74 836 24.69 14.5 58.2 23 -6.1 21
12:55 1007 29.74 836 24.69 14.6 58.4 23 -6.1 20.9
13:00 1007 29.74 836 24.69 14.6 58.3 23 -6 21.3
13:05 1007 29.74 836 24.69 14.6 58.3 24 -5.4 22.2
13:10 1007 29.74 836 24.69 14.6 58.4 25 -5.3 22.4
13:15 1007 29.74 836 24.69 14.7 58.5 23 -6 21.2
13:20 1007 29.74 836 24.69 14.8 58.6 25 -5.2 22.7
13:25 1007 29.74 836 24.69 15.2 59.4 22 -6.2 20.9
13:30 1006 29.71 836 24.69 15.2 59.4 23 -6 21.3
13:35 1006 29.71 836 24.69 15.4 59.6 22 -5.9 21.4
13:40 1006 29.71 835 24.66 15.8 60.4 22 -5.9 21.4
13:45 1006 29.71 835 24.66 15.8 60.5 22 -5.8 21.5
13:50 1006 29.71 835 24.66 16.2 61.2 22 -5.6 21.9
13:55 1006 29.71 835 24.66 16.2 61.2 20 -6.7 19.9
14:00 1006 29.71 835 24.66 16.1 60.9 20 -6.8 19.8
14:05 1006 29.71 835 24.66 16.3 61.3 20 -6.8 19.8
14:10 1006 29.71 835 24.66 16.2 61.1 21 -6.3 20.6
14:15 1006 29.71 835 24.66 16.1 61 21 -6.3 20.7
14:20 1005 29.68 835 24.66 16.2 61.2 21 -6.2 20.9
14:25 1005 29.68 835 24.66 16.1 60.9 23 -5.2 22.6
14:30 1005 29.68 835 24.66 16.1 60.9 20 -6.6 20.1
14:35 1005 29.68 834 24.63 16.3 61.3 23 -4.7 23.6
14:40 1005 29.68 834 24.63 16.1 60.9 23 -5.2 22.7
14:45 1005 29.68 834 24.63 16.2 61.1 20 -6.9 19.6
14:50 1005 29.68 834 24.63 16.3 61.3 20 -6.4 20.5
14:55 1005 29.68 834 24.63 15.9 60.5 21 -6.3 20.6
15:00 1005 29.68 834 24.63 15.8 60.4 21 -6.1 21
15:05 1005 29.68 834 24.63 15.6 60 21 -6.7 19.9
15:10 1005 29.68 834 24.63 15.5 60 21 -6.8 19.7
15:15 1005 29.68 834 24.63 15.7 60.3 20 -7 19.5
15:20 1004 29.65 834 24.63 15.7 60.2 19 -7.5 18.4
15:25 1004 29.65 834 24.63 15.5 60 21 -6.6 20
15:30 1004 29.65 833 24.6 15.4 59.6 21 -7.1 19.3
15:35 1004 29.65 833 24.6 15.3 59.5 21 -7.1 19.3
15:40 1004 29.65 833 24.6 15.3 59.5 22 -6.5 20.3
15:45 1004 29.65 833 24.6 15.3 59.5 21 -6.9 19.6
15:50 1004 29.65 833 24.6 15.2 59.4 20 -7.4 18.7
15:55 1004 29.65 833 24.6 15.1 59.2 20 -7.5 18.5
16:00 1004 29.65 833 24.6 15.1 59.1 21 -6.9 19.5
16:05 1003 29.62 833 24.6 15 58.9 20 -7.8 17.9
16:10 1003 29.62 833 24.6 14.9 58.8 22 -6.7 19.9
16:15 1003 29.62 833 24.6 14.7 58.5 22 -6.7 20
16:20 1003 29.62 833 24.6 14.6 58.2 22 -7.1 19.3
16:25 1003 29.62 833 24.6 14.9 58.8 21 -7.1 19.2
16:30 1003 29.62 833 24.6 14.9 58.8 23 -5.8 21.5
16:35 1003 29.62 833 24.6 14.6 58.3 21 -7.3 18.9
16:40 1003 29.62 832 24.57 14.7 58.5 22 -6.5 20.3
16:45 1003 29.62 832 24.57 14.5 58.1 23 -6.5 20.3
16:50 1003 29.62 832 24.57 14.4 57.9 23 -6.2 20.9
16:55 1003 29.62 832 24.57 14.1 57.5 24 -6.1 21
17:00 1003 29.62 832 24.57 14 57.2 24 -6.4 20.5
17:05 1003 29.62 832 24.57 14 57.2 23 -6.5 20.3
17:10 1003 29.62 832 24.57 13.9 57.1 24 -6.2 20.9
17:15 1003 29.62 832 24.57 14.2 57.6 22 -7 19.4
17:20 1003 29.62 832 24.57 14.4 57.9 23 -6.6 20.1
17:25 1003 29.62 832 24.57 14.2 57.6 23 -6.6 20.1
17:30 1003 29.62 832 24.57 14 57.3 24 -6.2 20.8
17:35 1003 29.62 832 24.57 13.8 56.8 24 -6.5 20.3
17:40 1003 29.62 832 24.57 13.7 56.6 25 -6.1 21
17:45 1002 29.59 832 24.57 13.7 56.6 23 -7.2 19.1
17:50 1002 29.59 832 24.57 14.1 57.4 22 -7 19.4
17:55 1002 29.59 832 24.57 14.4 57.8 23 -6.3 20.7
18:00 1002 29.59 832 24.57 14.1 57.4 25 -5.6 22
18:05 1002 29.59 832 24.57 13.4 56 24 -6.6 20.1
18:10 1002 29.59 832 24.57 13.7 56.7 24 -6.7 19.9
18:15 1002 29.59 832 24.57 13.8 56.8 24 -6.4 20.4
18:20 1002 29.59 832 24.57 13.5 56.2 25 -6.3 20.7
18:25 1002 29.59 831 24.54 13.5 56.2 25 -6 21.3
18:30 1002 29.59 831 24.54 13.2 55.8 25 -6.1 21
18:35 1002 29.59 831 24.54 13.1 55.5 25 -6.3 20.7
18:40 1002 29.59 831 24.54 13.1 55.6 25 -6.6 20.1
18:45 1002 29.59 831 24.54 13.3 55.9 25 -6.5 20.4
18:50 1002 29.59 831 24.54 12.9 55.3 26 -6.3 20.7
18:55 1002 29.59 831 24.54 13 55.3 25 -6.4 20.4
19:00 1002 29.59 831 24.54 12.9 55.1 26 -6.1 21
19:05 1002 29.59 831 24.54 12.7 54.8 26 -6.3 20.6
19:10 1001 29.56 831 24.54 12.5 54.5 26 -6.4 20.5
19:15 1001 29.56 830 24.51 12.5 54.5 26 -6.5 20.3
19:20 1001 29.56 830 24.51 12.7 54.8 25 -6.7 19.9
19:25 1001 29.56 830 24.51 12.6 54.7 25 -6.7 19.9
19:30 1001 29.56 830 24.51 12.4 54.4 26 -6.4 20.4
19:35 1001 29.56 830 24.51 12.3 54.2 24 -7.6 18.3
19:40 1001 29.56 830 24.51 12.8 55 25 -6.8 19.8
19:45 1001 29.56 830 24.51 12.7 54.9 24 -7.3 18.8
19:50 1001 29.56 830 24.51 13 55.3 25 -6.7 19.9
19:55 1001 29.56 830 24.51 12.5 54.4 25 -6.8 19.8
20:00 1001 29.56 830 24.51 12.6 54.7 25 -6.7 19.9
20:05 1000 29.53 830 24.51 12.6 54.7 25 -6.9 19.7
20:10 1000 29.53 830 24.51 12.4 54.3 26 -6.3 20.6
20:15 1000 29.53 830 24.51 12.4 54.4 26 -6.3 20.7
20:20 1001 29.56 830 24.51 12.6 54.6 27 -6.1 21
20:25 1001 29.56 830 24.51 12.6 54.7 27 -6 21.1
20:30 1001 29.56 830 24.51 12.6 54.6 27 -6.1 21
20:35 1001 29.56 830 24.51 12.4 54.3 27 -6.2 20.8
20:40 1000 29.53 830 24.51 12.4 54.4 27 -6 21.2
20:45 1000 29.53 830 24.51 12.2 54 28 -5.7 21.8
20:50 1000 29.53 829 24.48 12.2 53.9 28 -5.5 22.1
20:55 1000 29.53 829 24.48 12 53.6 29 -5.6 22
21:00 1000 29.53 829 24.48 12 53.7 29 -5.5 22.1
21:05 1000 29.53 829 24.48 11.5 52.8 31 -5 23
21:10 1000 29.53 829 24.48 12.3 54.1 28 -5.5 22
21:15 1000 29.53 829 24.48 12.6 54.7 29 -5 23
21:20 1000 29.53 829 24.48 12.3 54.1 30 -4.7 23.5
21:25 999 29.5 829 24.48 11.9 53.3 31 -4.7 23.5
21:30 999 29.5 829 24.48 12.3 54.1 30 -4.8 23.4
21:35 999 29.5 829 24.48 12.2 53.9 31 -4.3 24.2
21:40 999 29.5 829 24.48 12.2 54 31 -4.5 23.8
21:45 999 29.5 829 24.48 11.6 52.9 34 -3.6 25.6
21:50 999 29.5 829 24.48 10.6 51.1 36 -3.7 25.3
21:55 999 29.5 829 24.48 10.2 50.4 35 -4.3 24.2
22:00 999 29.5 828 24.45 10.1 50.2 36 -4.4 24.1
22:05 999 29.5 828 24.45 10.1 50.1 35 -4.7 23.6
22:10 999 29.5 828 24.45 10.5 50.9 35 -4.4 24.1
22:15 999 29.5 828 24.45 10.1 50.1 37 -3.8 25.2
22:20 999 29.5 828 24.45 10 49.9 36 -4.3 24.3
22:25 999 29.5 828 24.45 10.3 50.5 36 -4.2 24.5
22:30 999 29.5 828 24.45 10.2 50.4 36 -4.1 24.7
22:35 999 29.5 828 24.45 10.2 50.3 37 -3.9 25
22:40 999 29.5 828 24.45 10.1 50.1 37 -3.8 25.2
22:45 999 29.5 828 24.45 10.3 50.6 36 -4.2 24.4
22:50 999 29.5 828 24.45 10.6 51 35 -4.1 24.6
22:55 999 29.5 828 24.45 10.6 51 36 -3.9 24.9
23:00 999 29.5 828 24.45 10.3 50.6 36 -4 24.9
23:05 999 29.5 828 24.45 10.3 50.6 36 -3.9 25
23:10 999 29.5 829 24.48 10.1 50.1 40 -2.7 27.1
23:15 999 29.5 829 24.48 9.7 49.4 39 -3.5 25.8
23:20 999 29.5 829 24.48 10.1 50.1 37 -3.9 25
23:25 999 29.5 829 24.48 10.4 50.7 36 -3.8 25.1
23:30 1000 29.53 829 24.48 10.7 51.2 35 -4 24.8
23:35 1000 29.53 829 24.48 11 51.7 36 -3.6 25.6
23:40 1000 29.53 829 24.48 10.8 51.5 39 -2.5 27.5
23:45 1000 29.53 829 24.48 9.3 48.7 62 2.4 36.3
23:50 1000 29.53 830 24.51 6.8 44.2 70 1.6 34.9
23:55 1001 29.56 830 24.51 5.7 42.2 74 1.4 34.5
24:00 1001 29.56 831 24.54 5.1 41.3 77 1.5 34.7